TFL361 TNCC-TNCA
Flight info
| Callsign | TFL361 |
|---|---|
| Flight time | 0h 56m |
| Altitude | 13000 |
| Route | ARUB1K ELUMO DCT DAVLA DCT BOMDA |
| Aircraft | A359/H-SDE2E3GHIJ3J4J5LM1ORWXY/LB1D1 |
Departure
| Time | 2026-05-04 22:06 |
|---|---|
| Airport | Hato International Airport (TNCC) |
Arrival
| Time | 2026-05-04 23:02 |
|---|---|
| Airport | Queen Beatrix International Airport (TNCA) |
| Time | Latitude | Longitude | Altitude | Speed | Heading |
|---|---|---|---|---|---|
| 2026-05-04 21:44 | 12.18542 | -68.95572 | 49 ft | 0 kts | 192° |
| 2026-05-04 21:55 | 12.18557 | -68.95569 | 47 ft | 2 kts | 192° |
| 2026-05-04 21:55 | 12.18574 | -68.95565 | 44 ft | 2 kts | 191° |
| 2026-05-04 21:55 | 12.18590 | -68.95562 | 44 ft | 2 kts | 190° |
| 2026-05-04 21:56 | 12.18606 | -68.95558 | 46 ft | 2 kts | 196° |
| 2026-05-04 21:56 | 12.18620 | -68.95550 | 43 ft | 2 kts | 254° |
| 2026-05-04 21:56 | 12.18621 | -68.95542 | 44 ft | 0 kts | 283° |
| 2026-05-04 22:00 | 12.18622 | -68.95543 | 43 ft | 1 kts | 283° |
| 2026-05-04 22:00 | 12.18632 | -68.95599 | 47 ft | 17 kts | 281° |
| 2026-05-04 22:01 | 12.18655 | -68.95726 | 49 ft | 19 kts | 281° |
| 2026-05-04 22:01 | 12.18686 | -68.95868 | 49 ft | 22 kts | 283° |
| 2026-05-04 22:01 | 12.18721 | -68.96025 | 49 ft | 24 kts | 282° |
| 2026-05-04 22:01 | 12.18757 | -68.96198 | 49 ft | 26 kts | 282° |
| 2026-05-04 22:02 | 12.18795 | -68.96387 | 49 ft | 28 kts | 282° |
| 2026-05-04 22:02 | 12.18838 | -68.96591 | 48 ft | 31 kts | 282° |
| 2026-05-04 22:02 | 12.18880 | -68.96784 | 47 ft | 29 kts | 282° |
| 2026-05-04 22:02 | 12.18925 | -68.96995 | 46 ft | 31 kts | 282° |
| 2026-05-04 22:03 | 12.18971 | -68.97219 | 46 ft | 33 kts | 282° |
| 2026-05-04 22:03 | 12.19019 | -68.97455 | 46 ft | 35 kts | 281° |
| 2026-05-04 22:03 | 12.19056 | -68.97631 | 46 ft | 13 kts | 289° |
| 2026-05-04 22:03 | 12.19066 | -68.97636 | 46 ft | 3 kts | 5° |
| 2026-05-04 22:04 | 12.19106 | -68.97633 | 46 ft | 13 kts | 5° |
| 2026-05-04 22:04 | 12.19151 | -68.97628 | 46 ft | 0 kts | 8° |
| 2026-05-04 22:05 | 12.19160 | -68.97623 | 45 ft | 9 kts | 29° |
| 2026-05-04 22:05 | 12.19207 | -68.97533 | 45 ft | 12 kts | 86° |
| 2026-05-04 22:05 | 12.19208 | -68.97522 | 45 ft | 8 kts | 86° |
| 2026-05-04 22:05 | 12.19159 | -68.97237 | 46 ft | 87 kts | 102° |
| 2026-05-04 22:06 | 12.18965 | -68.96309 | 116 ft | 173 kts | 99° |
| 2026-05-04 22:06 | 12.18753 | -68.94950 | 817 ft | 206 kts | 100° |
| 2026-05-04 22:06 | 12.18437 | -68.93405 | 1816 ft | 239 kts | 102° |
| 2026-05-04 22:06 | 12.18059 | -68.91769 | 2830 ft | 235 kts | 103° |
| 2026-05-04 22:07 | 12.17681 | -68.90129 | 3579 ft | 240 kts | 105° |
| 2026-05-04 22:07 | 12.17021 | -68.88551 | 4150 ft | 245 kts | 125° |
| 2026-05-04 22:07 | 12.15763 | -68.87383 | 4765 ft | 249 kts | 150° |
| 2026-05-04 22:07 | 12.14064 | -68.86918 | 5329 ft | 259 kts | 177° |
| 2026-05-04 22:08 | 12.12305 | -68.87340 | 5989 ft | 266 kts | 204° |
| 2026-05-04 22:08 | 12.10898 | -68.88605 | 6583 ft | 278 kts | 232° |
| 2026-05-04 22:08 | 12.10027 | -68.90405 | 7153 ft | 286 kts | 244° |
| 2026-05-04 22:08 | 12.09276 | -68.92316 | 7710 ft | 290 kts | 245° |
| 2026-05-04 22:09 | 12.08518 | -68.94236 | 8278 ft | 294 kts | 244° |
| 2026-05-04 22:09 | 12.07743 | -68.96158 | 8848 ft | 297 kts | 244° |
| 2026-05-04 22:09 | 12.06944 | -68.98116 | 9421 ft | 301 kts | 244° |
| 2026-05-04 22:09 | 12.06252 | -69.00152 | 9960 ft | 308 kts | 256° |
| 2026-05-04 22:10 | 12.06306 | -69.02370 | 10293 ft | 323 kts | 282° |
| 2026-05-04 22:10 | 12.06971 | -69.04618 | 10513 ft | 338 kts | 288° |
| 2026-05-04 22:10 | 12.07745 | -69.06937 | 10745 ft | 351 kts | 288° |
| 2026-05-04 22:10 | 12.08532 | -69.09336 | 10976 ft | 362 kts | 288° |
| 2026-05-04 22:11 | 12.09329 | -69.11819 | 11191 ft | 373 kts | 288° |
| 2026-05-04 22:11 | 12.10141 | -69.14378 | 11440 ft | 381 kts | 287° |
| 2026-05-04 22:11 | 12.10959 | -69.16974 | 11784 ft | 386 kts | 287° |
| 2026-05-04 22:11 | 12.11788 | -69.19614 | 11968 ft | 396 kts | 288° |
| 2026-05-04 22:12 | 12.12650 | -69.22367 | 11981 ft | 415 kts | 288° |
| 2026-05-04 22:12 | 12.13539 | -69.25206 | 11984 ft | 423 kts | 287° |
| 2026-05-04 22:12 | 12.14433 | -69.28066 | 11987 ft | 424 kts | 287° |
| 2026-05-04 22:12 | 12.14528 | -69.28371 | 11988 ft | 424 kts | 288° |
| 2026-05-04 22:13 | 12.14943 | -69.29702 | 11986 ft | 421 kts | 287° |
| 2026-05-04 22:13 | 12.15836 | -69.32564 | 11990 ft | 422 kts | 287° |
| 2026-05-04 22:13 | 12.16130 | -69.33505 | 11990 ft | 422 kts | 287° |
| 2026-05-04 22:18 | 12.16236 | -69.33847 | 11988 ft | 422 kts | 287° |
| 2026-05-04 22:19 | 12.16663 | -69.35215 | 11990 ft | 420 kts | 288° |
| 2026-05-04 22:19 | 12.16865 | -69.35864 | 11985 ft | 419 kts | 288° |
| 2026-05-04 22:19 | 12.17747 | -69.38692 | 11985 ft | 419 kts | 288° |
| 2026-05-04 22:20 | 12.18012 | -69.39541 | 11985 ft | 420 kts | 288° |
| 2026-05-04 22:22 | 12.18774 | -69.41987 | 11984 ft | 421 kts | 288° |
| 2026-05-04 22:22 | 12.19655 | -69.44813 | 11986 ft | 422 kts | 288° |
| 2026-05-04 22:22 | 12.20547 | -69.47674 | 11989 ft | 423 kts | 288° |
| 2026-05-04 22:23 | 12.20982 | -69.49071 | 11987 ft | 423 kts | 288° |
| 2026-05-04 22:23 | 12.21389 | -69.50380 | 11979 ft | 417 kts | 288° |
| 2026-05-04 22:23 | 12.22267 | -69.53202 | 11998 ft | 410 kts | 288° |
| 2026-05-04 22:24 | 12.23117 | -69.55932 | 11985 ft | 405 kts | 288° |
| 2026-05-04 22:24 | 12.23967 | -69.58664 | 11997 ft | 401 kts | 288° |
| 2026-05-04 22:24 | 12.24814 | -69.61387 | 11999 ft | 398 kts | 288° |
| 2026-05-04 22:24 | 12.25643 | -69.64053 | 11985 ft | 397 kts | 288° |
| 2026-05-04 22:25 | 12.26489 | -69.66760 | 12000 ft | 405 kts | 288° |
| 2026-05-04 22:25 | 12.27374 | -69.69490 | 11752 ft | 398 kts | 288° |
| 2026-05-04 22:25 | 12.28235 | -69.72119 | 11512 ft | 383 kts | 288° |
| 2026-05-04 22:25 | 12.29067 | -69.74661 | 11271 ft | 371 kts | 288° |
| 2026-05-04 22:26 | 12.29875 | -69.77130 | 11037 ft | 359 kts | 288° |
| 2026-05-04 22:26 | 12.30650 | -69.79500 | 10826 ft | 347 kts | 288° |
| 2026-05-04 22:26 | 12.31400 | -69.81796 | 10632 ft | 336 kts | 288° |
| 2026-05-04 22:26 | 12.32127 | -69.84029 | 10333 ft | 323 kts | 288° |
| 2026-05-04 22:27 | 12.32833 | -69.86187 | 9594 ft | 318 kts | 288° |
| 2026-05-04 22:27 | 12.33526 | -69.88312 | 8775 ft | 314 kts | 288° |
| 2026-05-04 22:27 | 12.34213 | -69.90417 | 8028 ft | 308 kts | 287° |
| 2026-05-04 22:27 | 12.34876 | -69.92453 | 7297 ft | 302 kts | 287° |
| 2026-05-04 22:28 | 12.35536 | -69.94483 | 6617 ft | 302 kts | 287° |
| 2026-05-04 22:28 | 12.36200 | -69.96524 | 6285 ft | 298 kts | 287° |
| 2026-05-04 22:28 | 12.36852 | -69.98529 | 5890 ft | 296 kts | 287° |
| 2026-05-04 22:28 | 12.37502 | -70.00537 | 5439 ft | 297 kts | 287° |
| 2026-05-04 22:29 | 12.38148 | -70.02524 | 4985 ft | 298 kts | 287° |
| 2026-05-04 22:29 | 12.38806 | -70.04544 | 4624 ft | 296 kts | 287° |
| 2026-05-04 22:29 | 12.39450 | -70.06528 | 4265 ft | 293 kts | 288° |
| 2026-05-04 22:29 | 12.40091 | -70.08502 | 3852 ft | 292 kts | 288° |
| 2026-05-04 22:30 | 12.40729 | -70.10473 | 3461 ft | 290 kts | 289° |
| 2026-05-04 22:30 | 12.41367 | -70.12436 | 3052 ft | 290 kts | 289° |
| 2026-05-04 22:30 | 12.41999 | -70.14373 | 2606 ft | 291 kts | 289° |
| 2026-05-04 22:30 | 12.42631 | -70.16317 | 2289 ft | 285 kts | 290° |
| 2026-05-04 22:31 | 12.43259 | -70.18245 | 2274 ft | 287 kts | 290° |
| 2026-05-04 22:31 | 12.43897 | -70.20202 | 2280 ft | 290 kts | 290° |
| 2026-05-04 22:31 | 12.44383 | -70.21482 | 2275 ft | 289 kts | 299° |
| 2026-05-04 22:31 | 12.46199 | -70.23322 | 2280 ft | 274 kts | 342° |
| 2026-05-04 22:32 | 12.48010 | -70.23635 | 2286 ft | 257 kts | 8° |
| 2026-05-04 22:32 | 12.49772 | -70.23412 | 2276 ft | 258 kts | 15° |
| 2026-05-04 22:32 | 12.51528 | -70.22972 | 2276 ft | 257 kts | 25° |
| 2026-05-04 22:32 | 12.52562 | -70.22432 | 2286 ft | 248 kts | 39° |
| 2026-05-04 22:33 | 12.53653 | -70.21146 | 2287 ft | 236 kts | 67° |
| 2026-05-04 22:33 | 12.54054 | -70.19625 | 2284 ft | 204 kts | 86° |
| 2026-05-04 22:33 | 12.54061 | -70.18285 | 2311 ft | 173 kts | 98° |
| 2026-05-04 22:33 | 12.53814 | -70.17183 | 2322 ft | 145 kts | 104° |
| 2026-05-04 22:34 | 12.53606 | -70.16217 | 2344 ft | 136 kts | 101° |
| 2026-05-04 22:34 | 12.53394 | -70.15283 | 2310 ft | 135 kts | 102° |
| 2026-05-04 22:34 | 12.53172 | -70.14354 | 2242 ft | 139 kts | 101° |
| 2026-05-04 22:34 | 12.52949 | -70.13383 | 2047 ft | 140 kts | 101° |
| 2026-05-04 22:35 | 12.52725 | -70.12428 | 1853 ft | 139 kts | 101° |
| 2026-05-04 22:35 | 12.52496 | -70.11468 | 1734 ft | 135 kts | 101° |
| 2026-05-04 22:35 | 12.52280 | -70.10567 | 1704 ft | 123 kts | 101° |
| 2026-05-04 22:35 | 12.52079 | -70.09748 | 1721 ft | 119 kts | 101° |
| 2026-05-04 22:36 | 12.51870 | -70.08903 | 1707 ft | 123 kts | 99° |
| 2026-05-04 22:36 | 12.51649 | -70.08044 | 1608 ft | 126 kts | 98° |
| 2026-05-04 22:36 | 12.51448 | -70.07189 | 1384 ft | 126 kts | 98° |
| 2026-05-04 22:36 | 12.51257 | -70.06341 | 976 ft | 130 kts | 99° |
| 2026-05-04 22:37 | 12.51032 | -70.05446 | 651 ft | 126 kts | 103° |
| 2026-05-04 22:37 | 12.50857 | -70.04586 | 432 ft | 121 kts | 100° |
| 2026-05-04 22:37 | 12.50678 | -70.03742 | 314 ft | 124 kts | 101° |
| 2026-05-04 22:37 | 12.50423 | -70.02887 | 308 ft | 134 kts | 102° |
| 2026-05-04 22:38 | 12.50179 | -70.01914 | 678 ft | 148 kts | 99° |
| 2026-05-04 22:38 | 12.49933 | -70.00839 | 1089 ft | 156 kts | 100° |
| 2026-05-04 22:38 | 12.49684 | -69.99807 | 1764 ft | 150 kts | 102° |
| 2026-05-04 22:38 | 12.49419 | -69.98691 | 1961 ft | 175 kts | 100° |
| 2026-05-04 22:39 | 12.49121 | -69.97407 | 1974 ft | 192 kts | 101° |
| 2026-05-04 22:39 | 12.48928 | -69.96024 | 1961 ft | 204 kts | 89° |
| 2026-05-04 22:39 | 12.49195 | -69.94560 | 1979 ft | 217 kts | 68° |
| 2026-05-04 22:39 | 12.50143 | -69.93369 | 1987 ft | 226 kts | 39° |
| 2026-05-04 22:40 | 12.51680 | -69.92910 | 1993 ft | 239 kts | 4° |
| 2026-05-04 22:40 | 12.53233 | -69.93529 | 2169 ft | 250 kts | 326° |
| 2026-05-04 22:40 | 12.54321 | -69.94982 | 2492 ft | 264 kts | 304° |
| 2026-05-04 22:40 | 12.55227 | -69.96628 | 2860 ft | 267 kts | 302° |
| 2026-05-04 22:41 | 12.56144 | -69.98286 | 2999 ft | 266 kts | 302° |
| 2026-05-04 22:41 | 12.57063 | -69.99915 | 2999 ft | 265 kts | 302° |
| 2026-05-04 22:41 | 12.57991 | -70.01540 | 2996 ft | 265 kts | 303° |
| 2026-05-04 22:41 | 12.58928 | -70.03166 | 2996 ft | 265 kts | 303° |
| 2026-05-04 22:42 | 12.59875 | -70.04801 | 2996 ft | 266 kts | 303° |
| 2026-05-04 22:42 | 12.60812 | -70.06417 | 2995 ft | 266 kts | 303° |
| 2026-05-04 22:42 | 12.61760 | -70.08055 | 2995 ft | 267 kts | 302° |
| 2026-05-04 22:42 | 12.62474 | -70.09803 | 3003 ft | 269 kts | 287° |
| 2026-05-04 22:43 | 12.62936 | -70.11671 | 2989 ft | 268 kts | 283° |
| 2026-05-04 22:43 | 12.63362 | -70.13530 | 2996 ft | 268 kts | 283° |
| 2026-05-04 22:43 | 12.63785 | -70.15364 | 2993 ft | 271 kts | 284° |
| 2026-05-04 22:43 | 12.63952 | -70.17342 | 2986 ft | 287 kts | 261° |
| 2026-05-04 22:44 | 12.63177 | -70.19202 | 2976 ft | 284 kts | 227° |
| 2026-05-04 22:44 | 12.61617 | -70.20347 | 2996 ft | 271 kts | 195° |
| 2026-05-04 22:44 | 12.59812 | -70.20841 | 2997 ft | 269 kts | 187° |
| 2026-05-04 22:44 | 12.57987 | -70.21111 | 2987 ft | 266 kts | 175° |
| 2026-05-04 22:45 | 12.56243 | -70.20738 | 2997 ft | 253 kts | 150° |
| 2026-05-04 22:45 | 12.54091 | -70.18228 | 2995 ft | 217 kts | 106° |
| 2026-05-04 22:45 | 12.53738 | -70.16835 | 3004 ft | 189 kts | 101° |
| 2026-05-04 22:46 | 12.53451 | -70.15557 | 3032 ft | 182 kts | 102° |
| 2026-05-04 22:46 | 12.53174 | -70.14315 | 2956 ft | 170 kts | 102° |
| 2026-05-04 22:46 | 12.52908 | -70.13215 | 2770 ft | 155 kts | 102° |
| 2026-05-04 22:46 | 12.52664 | -70.12195 | 2610 ft | 140 kts | 102° |
| 2026-05-04 22:47 | 12.52445 | -70.11273 | 2400 ft | 129 kts | 101° |
| 2026-05-04 22:47 | 12.52236 | -70.10396 | 2091 ft | 125 kts | 96° |
| 2026-05-04 22:47 | 12.52061 | -70.09538 | 1843 ft | 120 kts | 95° |
| 2026-05-04 22:47 | 12.51862 | -70.08719 | 1583 ft | 116 kts | 103° |
| 2026-05-04 22:48 | 12.51624 | -70.07939 | 1256 ft | 116 kts | 102° |
| 2026-05-04 22:48 | 12.51444 | -70.07141 | 1059 ft | 117 kts | 99° |
| 2026-05-04 22:48 | 12.51283 | -70.06279 | 777 ft | 126 kts | 100° |
| 2026-05-04 22:48 | 12.51082 | -70.05421 | 592 ft | 124 kts | 100° |
| 2026-05-04 22:49 | 12.50830 | -70.04572 | 404 ft | 123 kts | 100° |
| 2026-05-04 22:49 | 12.50665 | -70.03744 | 271 ft | 117 kts | 97° |
| 2026-05-04 22:49 | 12.50480 | -70.02972 | 140 ft | 109 kts | 101° |
| 2026-05-04 22:49 | 12.50317 | -70.02191 | 88 ft | 112 kts | 97° |
| 2026-05-04 22:50 | 12.50090 | -70.01351 | 363 ft | 132 kts | 101° |
| 2026-05-04 22:50 | 12.49829 | -70.00414 | 810 ft | 141 kts | 101° |
| 2026-05-04 22:50 | 12.49802 | -69.99432 | 1379 ft | 145 kts | 70° |
| 2026-05-04 22:50 | 12.50534 | -69.98636 | 1634 ft | 175 kts | 33° |
| 2026-05-04 22:51 | 12.51836 | -69.98576 | 1944 ft | 209 kts | 348° |
| 2026-05-04 22:51 | 12.53045 | -69.99475 | 2504 ft | 220 kts | 320° |
| 2026-05-04 22:51 | 12.54102 | -70.00611 | 2882 ft | 223 kts | 316° |
| 2026-05-04 22:51 | 12.55177 | -70.01772 | 2996 ft | 224 kts | 317° |
| 2026-05-04 22:52 | 12.56272 | -70.02916 | 2997 ft | 225 kts | 318° |
| 2026-05-04 22:52 | 12.57386 | -70.04049 | 2996 ft | 224 kts | 319° |
| 2026-05-04 22:52 | 12.58489 | -70.05155 | 2993 ft | 220 kts | 320° |
| 2026-05-04 22:52 | 12.59581 | -70.06241 | 2996 ft | 218 kts | 320° |
| 2026-05-04 22:53 | 12.60660 | -70.07308 | 2994 ft | 218 kts | 321° |
| 2026-05-04 22:53 | 12.61751 | -70.08396 | 2991 ft | 219 kts | 318° |
| 2026-05-04 22:53 | 12.62466 | -70.09778 | 2989 ft | 227 kts | 281° |
| 2026-05-04 22:53 | 12.62312 | -70.11380 | 3002 ft | 226 kts | 254° |
| 2026-05-04 22:54 | 12.62036 | -70.12948 | 2995 ft | 225 kts | 266° |
| 2026-05-04 22:54 | 12.62099 | -70.14556 | 2996 ft | 226 kts | 274° |
| 2026-05-04 22:54 | 12.62430 | -70.16104 | 2999 ft | 224 kts | 294° |
| 2026-05-04 22:54 | 12.63040 | -70.17513 | 2991 ft | 210 kts | 292° |
| 2026-05-04 22:55 | 12.63144 | -70.18951 | 2999 ft | 200 kts | 256° |
| 2026-05-04 22:55 | 12.62374 | -70.20069 | 3004 ft | 190 kts | 205° |
| 2026-05-04 22:55 | 12.61170 | -70.20507 | 3003 ft | 181 kts | 185° |
| 2026-05-04 22:55 | 12.59895 | -70.20781 | 2991 ft | 195 kts | 185° |
| 2026-05-04 22:56 | 12.58548 | -70.21076 | 2962 ft | 203 kts | 186° |
| 2026-05-04 22:56 | 12.57156 | -70.21366 | 2987 ft | 201 kts | 180° |
| 2026-05-04 22:56 | 12.55835 | -70.21215 | 2993 ft | 185 kts | 153° |
| 2026-05-04 22:56 | 12.54912 | -70.20428 | 2852 ft | 162 kts | 121° |
| 2026-05-04 22:57 | 12.54472 | -70.19475 | 2676 ft | 141 kts | 105° |
| 2026-05-04 22:57 | 12.54223 | -70.18562 | 2495 ft | 127 kts | 102° |
| 2026-05-04 22:57 | 12.53996 | -70.17712 | 2268 ft | 119 kts | 102° |
| 2026-05-04 22:57 | 12.53800 | -70.16928 | 2072 ft | 112 kts | 99° |
| 2026-05-04 22:58 | 12.53621 | -70.16160 | 2013 ft | 111 kts | 99° |
| 2026-05-04 22:58 | 12.53435 | -70.15373 | 2008 ft | 115 kts | 100° |
| 2026-05-04 22:58 | 12.53241 | -70.14571 | 1997 ft | 116 kts | 100° |
| 2026-05-04 22:58 | 12.53051 | -70.13785 | 1994 ft | 115 kts | 101° |
| 2026-05-04 22:59 | 12.52859 | -70.12986 | 1972 ft | 118 kts | 100° |
| 2026-05-04 22:59 | 12.52659 | -70.12143 | 1806 ft | 123 kts | 100° |
| 2026-05-04 22:59 | 12.52455 | -70.11286 | 1643 ft | 124 kts | 100° |
| 2026-05-04 22:59 | 12.52253 | -70.10431 | 1461 ft | 123 kts | 99° |
| 2026-05-04 23:00 | 12.52049 | -70.09593 | 1219 ft | 122 kts | 98° |
| 2026-05-04 23:00 | 12.51840 | -70.08758 | 1046 ft | 120 kts | 100° |
| 2026-05-04 23:00 | 12.51645 | -70.07915 | 922 ft | 121 kts | 96° |
| 2026-05-04 23:00 | 12.51475 | -70.07079 | 858 ft | 123 kts | 102° |
| 2026-05-04 23:01 | 12.51267 | -70.06228 | 721 ft | 123 kts | 101° |
| 2026-05-04 23:01 | 12.51041 | -70.05389 | 555 ft | 122 kts | 103° |
| 2026-05-04 23:01 | 12.50857 | -70.04550 | 409 ft | 122 kts | 100° |
| 2026-05-04 23:01 | 12.50656 | -70.03716 | 264 ft | 121 kts | 100° |
| 2026-05-04 23:02 | 12.50472 | -70.02892 | 103 ft | 116 kts | 97° |
| 2026-05-04 23:02 | 12.50279 | -70.02116 | 46 ft | 105 kts | 99° |
| 2026-05-04 23:02 | 12.50123 | -70.01449 | 50 ft | 78 kts | 102° |
| 2026-05-04 23:02 | 12.50045 | -70.01115 | 51 ft | 30 kts | 106° |
| 2026-05-04 23:03 | 12.50060 | -70.01028 | 50 ft | 9 kts | 41° |
| 2026-05-04 23:03 | 12.50127 | -70.00999 | 52 ft | 9 kts | 16° |
| 2026-05-04 23:03 | 12.50156 | -70.00991 | 50 ft | 2 kts | 16° |
| 2026-05-04 23:03 | 12.50182 | -70.00982 | 47 ft | 6 kts | 20° |
| 2026-05-04 23:04 | 12.50216 | -70.00947 | 53 ft | 7 kts | 66° |
| 2026-05-04 23:04 | 12.50214 | -70.00893 | 53 ft | 8 kts | 97° |
| 2026-05-04 23:04 | 12.50205 | -70.00827 | 53 ft | 10 kts | 98° |
| 2026-05-04 23:04 | 12.50190 | -70.00760 | 53 ft | 11 kts | 105° |
| 2026-05-04 23:05 | 12.50181 | -70.00689 | 53 ft | 7 kts | 63° |
| 2026-05-04 23:05 | 12.50223 | -70.00655 | 53 ft | 9 kts | 29° |
| 2026-05-04 23:05 | 12.50238 | -70.00649 | 52 ft | 0 kts | 19° |